sensor_id;sensor_type;location;lat;lon;timestamp;P1;durP1;ratioP1;P2;durP2;ratioP2
66521;SDS011;53349;53.538;8.584;2023-05-07T00:01:40;18.63;;;9.47;;
66521;SDS011;53349;53.538;8.584;2023-05-07T00:04:05;18.50;;;9.60;;
66521;SDS011;53349;53.538;8.584;2023-05-07T00:06:31;20.23;;;9.90;;
66521;SDS011;53349;53.538;8.584;2023-05-07T00:08:58;16.35;;;8.60;;
66521;SDS011;53349;53.538;8.584;2023-05-07T00:11:24;17.83;;;9.15;;
66521;SDS011;53349;53.538;8.584;2023-05-07T00:13:49;18.60;;;9.43;;
66521;SDS011;53349;53.538;8.584;2023-05-07T00:16:15;17.80;;;9.43;;
66521;SDS011;53349;53.538;8.584;2023-05-07T00:18:41;19.55;;;9.75;;
66521;SDS011;53349;53.538;8.584;2023-05-07T00:21:06;19.77;;;9.37;;
66521;SDS011;53349;53.538;8.584;2023-05-07T00:23:32;19.80;;;9.23;;
66521;SDS011;53349;53.538;8.584;2023-05-07T00:25:57;18.60;;;9.03;;
66521;SDS011;53349;53.538;8.584;2023-05-07T00:28:22;17.87;;;8.23;;
66521;SDS011;53349;53.538;8.584;2023-05-07T00:30:48;15.90;;;8.50;;
66521;SDS011;53349;53.538;8.584;2023-05-07T00:33:13;16.27;;;8.27;;
66521;SDS011;53349;53.538;8.584;2023-05-07T00:35:38;16.10;;;8.40;;
66521;SDS011;53349;53.538;8.584;2023-05-07T00:38:04;16.73;;;8.83;;
66521;SDS011;53349;53.538;8.584;2023-05-07T00:40:29;17.23;;;8.37;;
66521;SDS011;53349;53.538;8.584;2023-05-07T00:42:54;17.27;;;9.00;;
66521;SDS011;53349;53.538;8.584;2023-05-07T00:45:20;16.10;;;8.37;;
66521;SDS011;53349;53.538;8.584;2023-05-07T00:47:45;16.93;;;8.97;;
66521;SDS011;53349;53.538;8.584;2023-05-07T00:50:10;17.83;;;9.63;;
66521;SDS011;53349;53.538;8.584;2023-05-07T00:52:37;19.70;;;9.25;;
66521;SDS011;53349;53.538;8.584;2023-05-07T00:55:04;17.80;;;9.20;;
66521;SDS011;53349;53.538;8.584;2023-05-07T00:57:32;17.95;;;9.32;;
66521;SDS011;53349;53.538;8.584;2023-05-07T01:00:01;17.02;;;9.45;;
66521;SDS011;53349;53.538;8.584;2023-05-07T01:02:26;18.10;;;9.68;;
66521;SDS011;53349;53.538;8.584;2023-05-07T01:04:52;20.77;;;10.52;;
66521;SDS011;53349;53.538;8.584;2023-05-07T01:07:18;19.83;;;10.30;;
66521;SDS011;53349;53.538;8.584;2023-05-07T01:09:43;19.08;;;9.88;;
66521;SDS011;53349;53.538;8.584;2023-05-07T01:12:09;17.67;;;9.67;;
66521;SDS011;53349;53.538;8.584;2023-05-07T01:14:35;16.13;;;9.20;;
66521;SDS011;53349;53.538;8.584;2023-05-07T01:17:01;18.23;;;9.47;;
66521;SDS011;53349;53.538;8.584;2023-05-07T01:19:26;17.10;;;9.50;;
66521;SDS011;53349;53.538;8.584;2023-05-07T01:21:54;19.75;;;9.95;;
66521;SDS011;53349;53.538;8.584;2023-05-07T01:24:28;19.08;;;10.30;;
66521;SDS011;53349;53.538;8.584;2023-05-07T01:26:53;20.77;;;10.35;;
66521;SDS011;53349;53.538;8.584;2023-05-07T01:29:19;19.55;;;9.88;;
66521;SDS011;53349;53.538;8.584;2023-05-07T01:31:44;19.77;;;10.00;;
66521;SDS011;53349;53.538;8.584;2023-05-07T01:34:11;20.27;;;9.30;;
66521;SDS011;53349;53.538;8.584;2023-05-07T01:36:38;20.02;;;9.85;;
66521;SDS011;53349;53.538;8.584;2023-05-07T01:39:04;19.45;;;10.13;;
66521;SDS011;53349;53.538;8.584;2023-05-07T01:41:32;19.20;;;9.63;;
66521;SDS011;53349;53.538;8.584;2023-05-07T01:43:58;20.98;;;10.10;;
66521;SDS011;53349;53.538;8.584;2023-05-07T01:46:24;19.90;;;10.75;;
66521;SDS011;53349;53.538;8.584;2023-05-07T01:48:51;20.60;;;10.60;;
66521;SDS011;53349;53.538;8.584;2023-05-07T01:51:19;19.70;;;10.20;;
66521;SDS011;53349;53.538;8.584;2023-05-07T01:53:45;21.40;;;10.95;;
66521;SDS011;53349;53.538;8.584;2023-05-07T01:56:11;20.50;;;10.50;;
66521;SDS011;53349;53.538;8.584;2023-05-07T01:58:36;19.30;;;10.07;;
66521;SDS011;53349;53.538;8.584;2023-05-07T02:01:01;20.70;;;10.53;;
66521;SDS011;53349;53.538;8.584;2023-05-07T02:03:27;19.67;;;10.10;;
66521;SDS011;53349;53.538;8.584;2023-05-07T02:05:52;20.33;;;10.67;;
66521;SDS011;53349;53.538;8.584;2023-05-07T02:08:18;19.40;;;9.73;;
66521;SDS011;53349;53.538;8.584;2023-05-07T02:10:44;20.33;;;10.47;;
66521;SDS011;53349;53.538;8.584;2023-05-07T02:13:09;20.17;;;10.23;;
66521;SDS011;53349;53.538;8.584;2023-05-07T02:15:35;21.80;;;10.33;;
66521;SDS011;53349;53.538;8.584;2023-05-07T02:18:02;20.30;;;10.37;;
66521;SDS011;53349;53.538;8.584;2023-05-07T02:20:27;20.08;;;10.52;;
66521;SDS011;53349;53.538;8.584;2023-05-07T02:22:53;20.93;;;11.10;;
66521;SDS011;53349;53.538;8.584;2023-05-07T02:25:18;21.83;;;10.30;;
66521;SDS011;53349;53.538;8.584;2023-05-07T02:27:43;19.93;;;10.30;;
66521;SDS011;53349;53.538;8.584;2023-05-07T02:30:09;20.13;;;10.70;;
66521;SDS011;53349;53.538;8.584;2023-05-07T02:32:35;19.75;;;10.00;;
66521;SDS011;53349;53.538;8.584;2023-05-07T02:35:00;20.67;;;11.00;;
66521;SDS011;53349;53.538;8.584;2023-05-07T02:37:26;21.75;;;10.88;;
66521;SDS011;53349;53.538;8.584;2023-05-07T02:39:51;21.47;;;10.43;;
66521;SDS011;53349;53.538;8.584;2023-05-07T02:42:21;20.80;;;10.38;;
66521;SDS011;53349;53.538;8.584;2023-05-07T02:44:47;19.70;;;10.52;;
66521;SDS011;53349;53.538;8.584;2023-05-07T02:47:13;20.00;;;9.63;;
66521;SDS011;53349;53.538;8.584;2023-05-07T02:49:40;20.75;;;10.65;;
66521;SDS011;53349;53.538;8.584;2023-05-07T02:52:05;18.80;;;9.67;;
66521;SDS011;53349;53.538;8.584;2023-05-07T02:54:32;19.38;;;9.52;;
66521;SDS011;53349;53.538;8.584;2023-05-07T02:56:57;21.27;;;9.97;;
66521;SDS011;53349;53.538;8.584;2023-05-07T02:59:23;16.48;;;8.75;;
66521;SDS011;53349;53.538;8.584;2023-05-07T03:01:48;16.03;;;8.40;;
66521;SDS011;53349;53.538;8.584;2023-05-07T03:04:14;17.57;;;8.90;;
66521;SDS011;53349;53.538;8.584;2023-05-07T03:06:39;17.37;;;9.00;;
66521;SDS011;53349;53.538;8.584;2023-05-07T03:09:04;18.87;;;9.60;;
66521;SDS011;53349;53.538;8.584;2023-05-07T03:11:29;18.40;;;9.23;;
66521;SDS011;53349;53.538;8.584;2023-05-07T03:13:56;17.52;;;8.52;;
66521;SDS011;53349;53.538;8.584;2023-05-07T03:16:21;19.67;;;9.50;;
66521;SDS011;53349;53.538;8.584;2023-05-07T03:18:46;19.47;;;9.57;;
66521;SDS011;53349;53.538;8.584;2023-05-07T03:21:12;19.97;;;10.07;;
66521;SDS011;53349;53.538;8.584;2023-05-07T03:23:37;20.20;;;9.70;;
66521;SDS011;53349;53.538;8.584;2023-05-07T03:26:03;19.35;;;9.55;;
66521;SDS011;53349;53.538;8.584;2023-05-07T03:28:28;19.40;;;9.50;;
66521;SDS011;53349;53.538;8.584;2023-05-07T03:30:54;17.60;;;8.30;;
66521;SDS011;53349;53.538;8.584;2023-05-07T03:33:19;16.77;;;8.30;;
66521;SDS011;53349;53.538;8.584;2023-05-07T03:35:44;16.43;;;7.93;;
66521;SDS011;53349;53.538;8.584;2023-05-07T03:38:10;16.20;;;7.80;;
66521;SDS011;53349;53.538;8.584;2023-05-07T03:40:35;14.20;;;7.50;;
66521;SDS011;53349;53.538;8.584;2023-05-07T03:43:01;15.47;;;7.87;;
66521;SDS011;53349;53.538;8.584;2023-05-07T03:45:27;14.00;;;7.43;;
66521;SDS011;53349;53.538;8.584;2023-05-07T03:47:53;14.98;;;7.20;;
66521;SDS011;53349;53.538;8.584;2023-05-07T03:50:19;14.13;;;6.97;;
66521;SDS011;53349;53.538;8.584;2023-05-07T03:52:46;14.90;;;7.20;;
66521;SDS011;53349;53.538;8.584;2023-05-07T03:55:11;12.18;;;6.47;;
66521;SDS011;53349;53.538;8.584;2023-05-07T03:57:36;12.97;;;6.33;;
66521;SDS011;53349;53.538;8.584;2023-05-07T04:00:03;12.07;;;6.27;;
66521;SDS011;53349;53.538;8.584;2023-05-07T04:02:28;14.57;;;6.95;;
66521;SDS011;53349;53.538;8.584;2023-05-07T04:04:54;12.00;;;6.43;;
66521;SDS011;53349;53.538;8.584;2023-05-07T04:07:19;10.80;;;4.97;;
66521;SDS011;53349;53.538;8.584;2023-05-07T04:09:44;14.52;;;6.68;;
66521;SDS011;53349;53.538;8.584;2023-05-07T04:12:10;9.83;;;5.83;;
66521;SDS011;53349;53.538;8.584;2023-05-07T04:14:35;12.13;;;6.40;;
66521;SDS011;53349;53.538;8.584;2023-05-07T04:17:01;12.07;;;6.00;;
66521;SDS011;53349;53.538;8.584;2023-05-07T04:19:27;13.73;;;6.53;;
66521;SDS011;53349;53.538;8.584;2023-05-07T04:21:52;15.10;;;7.75;;
66521;SDS011;53349;53.538;8.584;2023-05-07T04:24:17;13.13;;;6.70;;
66521;SDS011;53349;53.538;8.584;2023-05-07T04:26:45;14.05;;;7.05;;
66521;SDS011;53349;53.538;8.584;2023-05-07T04:29:10;11.53;;;6.13;;
66521;SDS011;53349;53.538;8.584;2023-05-07T04:31:36;13.57;;;6.10;;
66521;SDS011;53349;53.538;8.584;2023-05-07T04:34:01;13.37;;;6.80;;
66521;SDS011;53349;53.538;8.584;2023-05-07T04:36:26;13.30;;;6.63;;
66521;SDS011;53349;53.538;8.584;2023-05-07T04:38:51;12.73;;;6.37;;
66521;SDS011;53349;53.538;8.584;2023-05-07T04:41:17;10.68;;;6.28;;
66521;SDS011;53349;53.538;8.584;2023-05-07T04:43:42;13.73;;;7.18;;
66521;SDS011;53349;53.538;8.584;2023-05-07T04:46:09;13.47;;;7.50;;
66521;SDS011;53349;53.538;8.584;2023-05-07T04:48:35;13.73;;;6.33;;
66521;SDS011;53349;53.538;8.584;2023-05-07T04:51:01;13.67;;;7.10;;
66521;SDS011;53349;53.538;8.584;2023-05-07T04:53:26;11.95;;;6.28;;
66521;SDS011;53349;53.538;8.584;2023-05-07T04:55:59;11.37;;;6.43;;
66521;SDS011;53349;53.538;8.584;2023-05-07T04:58:24;13.98;;;6.68;;
66521;SDS011;53349;53.538;8.584;2023-05-07T05:00:50;11.77;;;5.90;;
66521;SDS011;53349;53.538;8.584;2023-05-07T05:03:15;12.73;;;6.70;;
66521;SDS011;53349;53.538;8.584;2023-05-07T05:05:43;12.70;;;6.23;;
66521;SDS011;53349;53.538;8.584;2023-05-07T05:08:08;12.18;;;6.50;;
66521;SDS011;53349;53.538;8.584;2023-05-07T05:10:34;12.20;;;6.40;;
66521;SDS011;53349;53.538;8.584;2023-05-07T05:12:59;11.93;;;6.33;;
66521;SDS011;53349;53.538;8.584;2023-05-07T05:15:24;12.60;;;6.07;;
66521;SDS011;53349;53.538;8.584;2023-05-07T05:17:49;12.20;;;6.00;;
66521;SDS011;53349;53.538;8.584;2023-05-07T05:20:15;13.60;;;6.47;;
66521;SDS011;53349;53.538;8.584;2023-05-07T05:22:41;13.17;;;5.77;;
66521;SDS011;53349;53.538;8.584;2023-05-07T05:25:06;13.20;;;6.53;;
66521;SDS011;53349;53.538;8.584;2023-05-07T05:27:32;11.80;;;6.33;;
66521;SDS011;53349;53.538;8.584;2023-05-07T05:29:57;12.87;;;6.70;;
66521;SDS011;53349;53.538;8.584;2023-05-07T05:32:23;13.47;;;6.77;;
66521;SDS011;53349;53.538;8.584;2023-05-07T05:34:48;14.50;;;7.27;;
66521;SDS011;53349;53.538;8.584;2023-05-07T05:37:13;14.02;;;7.25;;
66521;SDS011;53349;53.538;8.584;2023-05-07T05:39:40;15.70;;;7.65;;
66521;SDS011;53349;53.538;8.584;2023-05-07T05:42:05;14.00;;;6.60;;
66521;SDS011;53349;53.538;8.584;2023-05-07T05:44:30;11.30;;;6.30;;
66521;SDS011;53349;53.538;8.584;2023-05-07T05:46:56;13.53;;;6.80;;
66521;SDS011;53349;53.538;8.584;2023-05-07T05:49:21;14.43;;;6.97;;
66521;SDS011;53349;53.538;8.584;2023-05-07T05:51:49;15.18;;;6.70;;
66521;SDS011;53349;53.538;8.584;2023-05-07T05:54:15;13.70;;;7.47;;
66521;SDS011;53349;53.538;8.584;2023-05-07T05:56:40;14.07;;;7.45;;
66521;SDS011;53349;53.538;8.584;2023-05-07T05:59:06;11.40;;;6.50;;
66521;SDS011;53349;53.538;8.584;2023-05-07T06:01:32;13.07;;;7.00;;
66521;SDS011;53349;53.538;8.584;2023-05-07T06:03:57;14.05;;;6.82;;
66521;SDS011;53349;53.538;8.584;2023-05-07T06:06:23;14.30;;;6.78;;
66521;SDS011;53349;53.538;8.584;2023-05-07T06:08:49;12.83;;;6.93;;
66521;SDS011;53349;53.538;8.584;2023-05-07T06:11:14;14.87;;;7.33;;
66521;SDS011;53349;53.538;8.584;2023-05-07T06:13:39;12.40;;;6.73;;
66521;SDS011;53349;53.538;8.584;2023-05-07T06:16:05;12.57;;;6.67;;
66521;SDS011;53349;53.538;8.584;2023-05-07T06:18:31;13.57;;;6.90;;
66521;SDS011;53349;53.538;8.584;2023-05-07T06:20:56;13.40;;;6.63;;
66521;SDS011;53349;53.538;8.584;2023-05-07T06:23:21;11.80;;;6.80;;
66521;SDS011;53349;53.538;8.584;2023-05-07T06:25:48;11.70;;;6.83;;
66521;SDS011;53349;53.538;8.584;2023-05-07T06:28:14;12.77;;;6.65;;
66521;SDS011;53349;53.538;8.584;2023-05-07T06:30:39;15.83;;;8.50;;
66521;SDS011;53349;53.538;8.584;2023-05-07T06:33:04;15.43;;;7.70;;
66521;SDS011;53349;53.538;8.584;2023-05-07T06:35:31;15.03;;;6.77;;
66521;SDS011;53349;53.538;8.584;2023-05-07T06:37:56;12.90;;;6.47;;
66521;SDS011;53349;53.538;8.584;2023-05-07T06:40:21;14.10;;;7.13;;
66521;SDS011;53349;53.538;8.584;2023-05-07T06:42:46;11.73;;;6.53;;
66521;SDS011;53349;53.538;8.584;2023-05-07T06:45:12;13.47;;;7.03;;
66521;SDS011;53349;53.538;8.584;2023-05-07T06:47:37;13.80;;;7.20;;
66521;SDS011;53349;53.538;8.584;2023-05-07T06:50:02;13.07;;;6.90;;
66521;SDS011;53349;53.538;8.584;2023-05-07T06:52:28;12.47;;;6.90;;
66521;SDS011;53349;53.538;8.584;2023-05-07T06:54:53;11.97;;;6.90;;
66521;SDS011;53349;53.538;8.584;2023-05-07T06:57:18;12.55;;;6.43;;
66521;SDS011;53349;53.538;8.584;2023-05-07T06:59:45;13.47;;;7.50;;
66521;SDS011;53349;53.538;8.584;2023-05-07T07:02:11;11.43;;;6.50;;
66521;SDS011;53349;53.538;8.584;2023-05-07T07:04:36;14.03;;;7.30;;
66521;SDS011;53349;53.538;8.584;2023-05-07T07:07:01;14.03;;;7.30;;
66521;SDS011;53349;53.538;8.584;2023-05-07T07:09:28;12.15;;;6.38;;
66521;SDS011;53349;53.538;8.584;2023-05-07T07:11:53;12.70;;;6.80;;
66521;SDS011;53349;53.538;8.584;2023-05-07T07:14:18;13.90;;;7.37;;
66521;SDS011;53349;53.538;8.584;2023-05-07T07:16:44;14.23;;;7.37;;
66521;SDS011;53349;53.538;8.584;2023-05-07T07:19:09;14.07;;;7.53;;
66521;SDS011;53349;53.538;8.584;2023-05-07T07:21:34;13.90;;;7.60;;
66521;SDS011;53349;53.538;8.584;2023-05-07T07:23:59;14.67;;;7.73;;
66521;SDS011;53349;53.538;8.584;2023-05-07T07:26:26;12.68;;;6.72;;
66521;SDS011;53349;53.538;8.584;2023-05-07T07:28:53;12.37;;;7.20;;
66521;SDS011;53349;53.538;8.584;2023-05-07T07:31:18;12.43;;;6.82;;
66521;SDS011;53349;53.538;8.584;2023-05-07T07:33:43;12.93;;;7.37;;
66521;SDS011;53349;53.538;8.584;2023-05-07T07:36:09;12.90;;;6.90;;
66521;SDS011;53349;53.538;8.584;2023-05-07T07:38:34;11.97;;;7.20;;
66521;SDS011;53349;53.538;8.584;2023-05-07T07:41:00;11.80;;;6.80;;
66521;SDS011;53349;53.538;8.584;2023-05-07T07:43:25;14.00;;;7.57;;
66521;SDS011;53349;53.538;8.584;2023-05-07T07:45:52;13.35;;;7.47;;
66521;SDS011;53349;53.538;8.584;2023-05-07T07:48:17;14.13;;;6.70;;
66521;SDS011;53349;53.538;8.584;2023-05-07T07:50:42;13.03;;;6.67;;
66521;SDS011;53349;53.538;8.584;2023-05-07T07:53:08;13.37;;;6.80;;
66521;SDS011;53349;53.538;8.584;2023-05-07T07:55:43;12.97;;;7.30;;
66521;SDS011;53349;53.538;8.584;2023-05-07T07:58:09;11.98;;;6.82;;
66521;SDS011;53349;53.538;8.584;2023-05-07T08:00:34;12.17;;;6.43;;
66521;SDS011;53349;53.538;8.584;2023-05-07T08:02:59;12.00;;;5.83;;
66521;SDS011;53349;53.538;8.584;2023-05-07T08:05:25;10.38;;;5.60;;
66521;SDS011;53349;53.538;8.584;2023-05-07T08:07:50;11.80;;;6.37;;
66521;SDS011;53349;53.538;8.584;2023-05-07T08:10:15;12.50;;;6.57;;
66521;SDS011;53349;53.538;8.584;2023-05-07T08:12:42;12.68;;;6.18;;
66521;SDS011;53349;53.538;8.584;2023-05-07T08:15:08;12.77;;;6.83;;
66521;SDS011;53349;53.538;8.584;2023-05-07T08:17:34;12.98;;;7.00;;
66521;SDS011;53349;53.538;8.584;2023-05-07T08:19:59;11.50;;;6.90;;
66521;SDS011;53349;53.538;8.584;2023-05-07T08:22:24;12.33;;;6.43;;
66521;SDS011;53349;53.538;8.584;2023-05-07T08:24:50;13.27;;;6.70;;
66521;SDS011;53349;53.538;8.584;2023-05-07T08:27:15;14.60;;;7.40;;
66521;SDS011;53349;53.538;8.584;2023-05-07T08:29:42;13.13;;;7.38;;
66521;SDS011;53349;53.538;8.584;2023-05-07T08:32:08;11.93;;;6.80;;
66521;SDS011;53349;53.538;8.584;2023-05-07T08:34:34;12.43;;;6.87;;
66521;SDS011;53349;53.538;8.584;2023-05-07T08:37:00;13.05;;;6.97;;
66521;SDS011;53349;53.538;8.584;2023-05-07T08:39:26;12.07;;;6.83;;
66521;SDS011;53349;53.538;8.584;2023-05-07T08:41:51;16.33;;;7.40;;
66521;SDS011;53349;53.538;8.584;2023-05-07T08:44:20;14.02;;;6.85;;
66521;SDS011;53349;53.538;8.584;2023-05-07T08:46:47;14.32;;;7.43;;
66521;SDS011;53349;53.538;8.584;2023-05-07T08:49:16;13.82;;;7.45;;
66521;SDS011;53349;53.538;8.584;2023-05-07T08:51:42;13.30;;;7.67;;
66521;SDS011;53349;53.538;8.584;2023-05-07T08:54:07;14.03;;;7.43;;
66521;SDS011;53349;53.538;8.584;2023-05-07T08:56:34;13.50;;;7.28;;
66521;SDS011;53349;53.538;8.584;2023-05-07T08:59:00;14.33;;;7.33;;
66521;SDS011;53349;53.538;8.584;2023-05-07T09:01:25;13.90;;;7.10;;
66521;SDS011;53349;53.538;8.584;2023-05-07T09:03:51;15.93;;;7.35;;
66521;SDS011;53349;53.538;8.584;2023-05-07T09:06:17;13.15;;;7.22;;
66521;SDS011;53349;53.538;8.584;2023-05-07T09:08:49;13.97;;;7.37;;
66521;SDS011;53349;53.538;8.584;2023-05-07T09:11:15;12.05;;;6.90;;
66521;SDS011;53349;53.538;8.584;2023-05-07T09:13:41;12.57;;;6.77;;
66521;SDS011;53349;53.538;8.584;2023-05-07T09:16:10;12.85;;;6.88;;
66521;SDS011;53349;53.538;8.584;2023-05-07T09:18:40;13.63;;;7.65;;
66521;SDS011;53349;53.538;8.584;2023-05-07T09:21:09;12.93;;;6.60;;
66521;SDS011;53349;53.538;8.584;2023-05-07T09:23:41;11.07;;;6.20;;
66521;SDS011;53349;53.538;8.584;2023-05-07T09:26:07;12.37;;;7.20;;
66521;SDS011;53349;53.538;8.584;2023-05-07T09:28:32;12.37;;;7.20;;
66521;SDS011;53349;53.538;8.584;2023-05-07T09:30:57;12.43;;;6.67;;
66521;SDS011;53349;53.538;8.584;2023-05-07T09:33:24;13.27;;;7.00;;
66521;SDS011;53349;53.538;8.584;2023-05-07T09:35:53;13.05;;;7.20;;
66521;SDS011;53349;53.538;8.584;2023-05-07T09:38:19;12.00;;;6.17;;
66521;SDS011;53349;53.538;8.584;2023-05-07T09:40:46;12.57;;;6.43;;
66521;SDS011;53349;53.538;8.584;2023-05-07T09:43:26;12.07;;;6.80;;
66521;SDS011;53349;53.538;8.584;2023-05-07T09:45:51;12.97;;;6.77;;
66521;SDS011;53349;53.538;8.584;2023-05-07T09:48:17;12.20;;;6.10;;
66521;SDS011;53349;53.538;8.584;2023-05-07T09:50:48;13.65;;;6.90;;
66521;SDS011;53349;53.538;8.584;2023-05-07T09:53:15;11.65;;;6.35;;
66521;SDS011;53349;53.538;8.584;2023-05-07T09:55:43;11.60;;;6.40;;
66521;SDS011;53349;53.538;8.584;2023-05-07T09:58:11;12.85;;;6.20;;
66521;SDS011;53349;53.538;8.584;2023-05-07T10:00:37;13.97;;;7.63;;
66521;SDS011;53349;53.538;8.584;2023-05-07T10:03:06;13.07;;;6.53;;
66521;SDS011;53349;53.538;8.584;2023-05-07T10:05:32;11.48;;;6.20;;
66521;SDS011;53349;53.538;8.584;2023-05-07T10:07:59;12.63;;;6.63;;
66521;SDS011;53349;53.538;8.584;2023-05-07T10:10:25;11.80;;;6.47;;
66521;SDS011;53349;53.538;8.584;2023-05-07T10:12:52;10.33;;;5.93;;
66521;SDS011;53349;53.538;8.584;2023-05-07T10:15:21;11.93;;;6.72;;
66521;SDS011;53349;53.538;8.584;2023-05-07T10:17:47;12.32;;;6.40;;
66521;SDS011;53349;53.538;8.584;2023-05-07T10:20:13;13.68;;;7.07;;
66521;SDS011;53349;53.538;8.584;2023-05-07T10:22:41;13.80;;;7.10;;
66521;SDS011;53349;53.538;8.584;2023-05-07T10:25:41;11.90;;;6.68;;
66521;SDS011;53349;53.538;8.584;2023-05-07T10:28:01;14.40;;;6.82;;
66521;SDS011;53349;53.538;8.584;2023-05-07T10:30:46;13.02;;;6.93;;
66521;SDS011;53349;53.538;8.584;2023-05-07T10:33:22;10.98;;;5.82;;
66521;SDS011;53349;53.538;8.584;2023-05-07T10:35:51;13.02;;;6.95;;
66521;SDS011;53349;53.538;8.584;2023-05-07T10:38:22;12.48;;;6.57;;
66521;SDS011;53349;53.538;8.584;2023-05-07T10:40:47;12.48;;;6.50;;
66521;SDS011;53349;53.538;8.584;2023-05-07T10:43:13;13.40;;;7.27;;
66521;SDS011;53349;53.538;8.584;2023-05-07T10:45:39;10.35;;;6.63;;
66521;SDS011;53349;53.538;8.584;2023-05-07T10:50:43;12.40;;;6.22;;
66521;SDS011;53349;53.538;8.584;2023-05-07T10:55:49;12.73;;;6.28;;
66521;SDS011;53349;53.538;8.584;2023-05-07T11:01:07;10.95;;;6.00;;
66521;SDS011;53349;53.538;8.584;2023-05-07T11:03:33;10.40;;;6.30;;
66521;SDS011;53349;53.538;8.584;2023-05-07T11:06:18;11.63;;;6.07;;
66521;SDS011;53349;53.538;8.584;2023-05-07T11:08:56;10.90;;;6.38;;
66521;SDS011;53349;53.538;8.584;2023-05-07T11:14:11;11.35;;;6.30;;
66521;SDS011;53349;53.538;8.584;2023-05-07T11:16:36;10.07;;;5.93;;
66521;SDS011;53349;53.538;8.584;2023-05-07T11:19:03;12.65;;;6.32;;
66521;SDS011;53349;53.538;8.584;2023-05-07T11:21:35;10.13;;;5.80;;
66521;SDS011;53349;53.538;8.584;2023-05-07T11:24:02;12.20;;;6.38;;
66521;SDS011;53349;53.538;8.584;2023-05-07T11:26:31;10.18;;;5.75;;
66521;SDS011;53349;53.538;8.584;2023-05-07T11:29:31;10.13;;;6.32;;
66521;SDS011;53349;53.538;8.584;2023-05-07T11:31:56;10.82;;;6.20;;
66521;SDS011;53349;53.538;8.584;2023-05-07T11:34:24;10.40;;;6.13;;
66521;SDS011;53349;53.538;8.584;2023-05-07T11:36:52;10.90;;;5.63;;
66521;SDS011;53349;53.538;8.584;2023-05-07T11:39:23;11.70;;;6.03;;
66521;SDS011;53349;53.538;8.584;2023-05-07T11:41:53;10.13;;;5.63;;
66521;SDS011;53349;53.538;8.584;2023-05-07T11:44:19;10.27;;;6.00;;
66521;SDS011;53349;53.538;8.584;2023-05-07T11:46:44;9.87;;;6.10;;
66521;SDS011;53349;53.538;8.584;2023-05-07T11:49:10;11.00;;;6.65;;
66521;SDS011;53349;53.538;8.584;2023-05-07T11:51:35;10.27;;;6.10;;
66521;SDS011;53349;53.538;8.584;2023-05-07T11:54:03;9.73;;;5.93;;
66521;SDS011;53349;53.538;8.584;2023-05-07T11:56:29;9.68;;;5.80;;
66521;SDS011;53349;53.538;8.584;2023-05-07T11:59:02;10.00;;;5.53;;
66521;SDS011;53349;53.538;8.584;2023-05-07T12:01:28;10.73;;;6.13;;
66521;SDS011;53349;53.538;8.584;2023-05-07T12:03:54;12.38;;;6.70;;
66521;SDS011;53349;53.538;8.584;2023-05-07T12:06:21;9.23;;;5.93;;
66521;SDS011;53349;53.538;8.584;2023-05-07T12:08:48;10.35;;;5.57;;
66521;SDS011;53349;53.538;8.584;2023-05-07T12:11:14;9.00;;;5.53;;
66521;SDS011;53349;53.538;8.584;2023-05-07T12:13:46;9.50;;;5.68;;
66521;SDS011;53349;53.538;8.584;2023-05-07T12:16:12;11.95;;;6.05;;
66521;SDS011;53349;53.538;8.584;2023-05-07T12:18:38;8.82;;;5.80;;
66521;SDS011;53349;53.538;8.584;2023-05-07T12:21:04;10.18;;;5.93;;
66521;SDS011;53349;53.538;8.584;2023-05-07T12:23:30;9.30;;;5.93;;
66521;SDS011;53349;53.538;8.584;2023-05-07T12:25:56;10.13;;;5.93;;
66521;SDS011;53349;53.538;8.584;2023-05-07T12:28:21;11.03;;;6.80;;
66521;SDS011;53349;53.538;8.584;2023-05-07T12:30:47;8.90;;;5.73;;
66521;SDS011;53349;53.538;8.584;2023-05-07T12:33:17;10.70;;;6.20;;
66521;SDS011;53349;53.538;8.584;2023-05-07T12:35:44;11.07;;;6.10;;
66521;SDS011;53349;53.538;8.584;2023-05-07T12:38:10;10.00;;;6.15;;
66521;SDS011;53349;53.538;8.584;2023-05-07T12:40:44;11.38;;;6.07;;
66521;SDS011;53349;53.538;8.584;2023-05-07T12:45:46;9.55;;;5.72;;
66521;SDS011;53349;53.538;8.584;2023-05-07T12:48:14;10.18;;;6.00;;
66521;SDS011;53349;53.538;8.584;2023-05-07T12:50:41;9.33;;;5.60;;
66521;SDS011;53349;53.538;8.584;2023-05-07T12:53:08;10.95;;;6.40;;
66521;SDS011;53349;53.538;8.584;2023-05-07T12:55:42;9.68;;;5.95;;
66521;SDS011;53349;53.538;8.584;2023-05-07T12:58:16;8.35;;;5.30;;
66521;SDS011;53349;53.538;8.584;2023-05-07T13:00:50;8.15;;;5.20;;
66521;SDS011;53349;53.538;8.584;2023-05-07T13:06:00;8.13;;;5.22;;
66521;SDS011;53349;53.538;8.584;2023-05-07T13:08:30;9.07;;;5.28;;
66521;SDS011;53349;53.538;8.584;2023-05-07T13:11:00;8.75;;;4.93;;
66521;SDS011;53349;53.538;8.584;2023-05-07T13:13:27;8.30;;;5.20;;
66521;SDS011;53349;53.538;8.584;2023-05-07T13:15:53;8.80;;;5.45;;
66521;SDS011;53349;53.538;8.584;2023-05-07T13:18:18;9.80;;;5.50;;
66521;SDS011;53349;53.538;8.584;2023-05-07T13:20:46;8.10;;;5.22;;
66521;SDS011;53349;53.538;8.584;2023-05-07T13:23:11;7.70;;;5.07;;
66521;SDS011;53349;53.538;8.584;2023-05-07T13:25:38;9.60;;;5.90;;
66521;SDS011;53349;53.538;8.584;2023-05-07T13:28:04;8.35;;;5.32;;
66521;SDS011;53349;53.538;8.584;2023-05-07T13:30:29;8.10;;;5.10;;
66521;SDS011;53349;53.538;8.584;2023-05-07T13:32:55;8.07;;;5.27;;
66521;SDS011;53349;53.538;8.584;2023-05-07T13:35:21;8.57;;;4.95;;
66521;SDS011;53349;53.538;8.584;2023-05-07T13:37:46;9.30;;;5.50;;
66521;SDS011;53349;53.538;8.584;2023-05-07T13:40:11;7.63;;;4.77;;
66521;SDS011;53349;53.538;8.584;2023-05-07T13:42:37;7.15;;;4.55;;
66521;SDS011;53349;53.538;8.584;2023-05-07T13:45:04;8.87;;;4.87;;
66521;SDS011;53349;53.538;8.584;2023-05-07T13:47:30;7.13;;;4.90;;
66521;SDS011;53349;53.538;8.584;2023-05-07T13:49:55;7.50;;;4.80;;
66521;SDS011;53349;53.538;8.584;2023-05-07T13:52:21;8.87;;;5.10;;
66521;SDS011;53349;53.538;8.584;2023-05-07T13:54:46;8.33;;;5.00;;
66521;SDS011;53349;53.538;8.584;2023-05-07T13:57:13;8.07;;;5.07;;
66521;SDS011;53349;53.538;8.584;2023-05-07T13:59:38;7.70;;;5.07;;
66521;SDS011;53349;53.538;8.584;2023-05-07T14:02:03;7.93;;;5.17;;
66521;SDS011;53349;53.538;8.584;2023-05-07T14:04:32;8.68;;;5.00;;
66521;SDS011;53349;53.538;8.584;2023-05-07T14:06:57;8.53;;;4.90;;
66521;SDS011;53349;53.538;8.584;2023-05-07T14:09:22;6.97;;;4.43;;
66521;SDS011;53349;53.538;8.584;2023-05-07T14:11:47;7.47;;;4.70;;
66521;SDS011;53349;53.538;8.584;2023-05-07T14:14:13;9.13;;;5.23;;
66521;SDS011;53349;53.538;8.584;2023-05-07T14:16:38;8.50;;;5.07;;
66521;SDS011;53349;53.538;8.584;2023-05-07T14:19:03;8.33;;;5.40;;
66521;SDS011;53349;53.538;8.584;2023-05-07T14:21:29;7.97;;;4.80;;
66521;SDS011;53349;53.538;8.584;2023-05-07T14:23:57;8.30;;;4.82;;
66521;SDS011;53349;53.538;8.584;2023-05-07T14:26:22;8.83;;;5.10;;
66521;SDS011;53349;53.538;8.584;2023-05-07T14:28:48;8.47;;;5.00;;
66521;SDS011;53349;53.538;8.584;2023-05-07T14:31:13;8.75;;;5.55;;
66521;SDS011;53349;53.538;8.584;2023-05-07T14:33:40;10.43;;;4.90;;
66521;SDS011;53349;53.538;8.584;2023-05-07T14:36:09;8.27;;;5.07;;
66521;SDS011;53349;53.538;8.584;2023-05-07T14:38:34;8.07;;;5.45;;
66521;SDS011;53349;53.538;8.584;2023-05-07T14:40:59;8.40;;;4.80;;
66521;SDS011;53349;53.538;8.584;2023-05-07T14:43:25;6.87;;;4.70;;
66521;SDS011;53349;53.538;8.584;2023-05-07T14:45:53;8.10;;;5.53;;
66521;SDS011;53349;53.538;8.584;2023-05-07T14:48:22;7.82;;;4.85;;